Ely, Nevada
Current Conditions -  °F | °C
As of 1:53 AM on Sunday 21 Dec 2014 (Local Time) from KELY Reporting Station
Overcast Overcast  
Wind Chill: 29°   Ceiling: 2600
Heat Index: 33°   Visibility: 10mi
Dew Point: 33°   Wind: 5mph
Humidity: 100%   Direction: 300°WNW
Pressure: 30.13"   Gusts: NA
Location:  39.25°N, 114.87°W
Report Text: KELY 210953Z AUTO 30004KT 10SM OVC026 01/01 A3013 RMK AO2 RAE06 SLP193 P0000 T00060006
Loading
Personal Weather Stations






























Interactive Weather Map New forecast layout! Learn more

10-Day Weather Forecast

Advertisements
Track Severe Weather on mobile